createdAt,value
2018-12-20T07:43:02.369Z,8.20
2018-12-20T07:45:31.183Z,8.30
2018-12-20T07:48:01.358Z,8.20
2018-12-20T07:50:29.969Z,8.20
2018-12-20T07:52:58.436Z,8.20
2018-12-20T07:55:27.068Z,8.20
2018-12-20T07:57:55.627Z,8.20
2018-12-20T08:00:24.185Z,8.20
2018-12-20T08:02:53.646Z,8.10
2018-12-20T08:05:22.475Z,8.10
2018-12-20T08:07:51.908Z,8.20
2018-12-20T08:10:20.415Z,8.20
2018-12-20T08:12:48.984Z,8.30
2018-12-20T08:15:21.259Z,8.40
2018-12-20T08:17:49.934Z,8.30
2018-12-20T08:20:43.601Z,8.40
2018-12-20T08:23:12.107Z,8.40
2018-12-20T08:25:52.386Z,8.40
2018-12-20T08:28:22.027Z,8.40
2018-12-20T08:30:50.807Z,8.30
2018-12-20T08:36:26.282Z,8.40
2018-12-20T08:38:55.029Z,8.60
2018-12-20T08:41:27.406Z,8.60
2018-12-20T08:43:56.286Z,8.70
2018-12-20T08:46:24.771Z,8.60
2018-12-20T08:48:53.324Z,8.60
2018-12-20T08:51:21.864Z,8.70
2018-12-20T08:53:50.559Z,8.80
2018-12-20T08:56:20.162Z,8.80
2018-12-20T08:59:00.647Z,8.90
2018-12-20T09:01:29.619Z,9.00
2018-12-20T09:03:58.139Z,9.00
2018-12-20T09:06:26.621Z,9.10
2018-12-20T09:08:55.064Z,8.90
2018-12-20T09:11:26.868Z,9.00
2018-12-20T09:13:55.454Z,9.10
2018-12-20T09:16:23.887Z,9.30
2018-12-20T09:18:52.640Z,9.50
2018-12-20T09:21:21.133Z,9.60
2018-12-20T09:23:49.577Z,9.60
2018-12-20T09:29:12.125Z,9.80
2018-12-20T09:31:40.610Z,9.90
2018-12-20T09:34:09.171Z,9.90
2018-12-20T09:36:37.620Z,10.00
2018-12-20T09:42:51.375Z,10.40
2018-12-20T09:45:19.916Z,10.50
2018-12-20T09:47:54.669Z,10.50
2018-12-20T09:50:23.133Z,10.50
2018-12-20T09:52:51.587Z,10.60
2018-12-20T09:55:20.181Z,10.60
2018-12-20T09:57:48.714Z,10.50
2018-12-20T10:00:17.776Z,10.50
2018-12-20T10:02:46.326Z,10.50
2018-12-20T10:05:28.691Z,10.50
2018-12-20T10:07:57.234Z,10.60
2018-12-20T10:10:26.002Z,10.60
2018-12-20T10:12:56.656Z,10.70
2018-12-20T10:15:25.710Z,10.80
2018-12-20T10:17:54.345Z,10.60
2018-12-20T10:20:23.255Z,10.70
2018-12-20T10:22:51.810Z,10.80
2018-12-20T10:25:20.368Z,10.80
2018-12-20T10:27:49.127Z,10.90
2018-12-20T10:30:17.753Z,10.90
2018-12-20T10:32:46.227Z,10.60
2018-12-20T10:35:15.126Z,10.10
2018-12-20T10:37:43.853Z,10.00
2018-12-20T10:43:07.283Z,10.10
2018-12-20T10:47:05.108Z,10.40
2018-12-20T10:49:33.564Z,10.20
2018-12-20T10:52:05.745Z,10.30
2018-12-20T10:57:27.030Z,10.40
2018-12-20T10:59:55.918Z,10.60
2018-12-20T11:02:33.255Z,10.70
2018-12-20T11:10:50.259Z,10.60
2018-12-20T11:16:11.431Z,10.70
2018-12-20T11:18:40.215Z,10.80
2018-12-20T11:24:05.358Z,10.90
2018-12-20T11:26:34.945Z,10.80
2018-12-20T11:31:56.008Z,11.00
2018-12-20T11:34:43.457Z,11.30
2018-12-20T11:37:12.188Z,11.50
2018-12-20T11:39:42.545Z,11.70
2018-12-20T11:42:11.126Z,11.50
2018-12-20T11:44:39.741Z,11.50
2018-12-20T11:47:12.578Z,11.70
2018-12-20T11:49:45.483Z,11.70
2018-12-20T11:52:14.164Z,11.70
2018-12-20T11:54:46.022Z,11.50
2018-12-20T11:57:14.723Z,11.70
2018-12-20T12:02:36.514Z,11.60
2018-12-20T12:05:05.337Z,11.60
2018-12-20T12:07:46.504Z,11.60
2018-12-20T12:10:15.253Z,11.70
2018-12-20T12:12:44.166Z,11.90
2018-12-20T12:15:26.543Z,12.00
2018-12-20T12:17:55.333Z,12.10
2018-12-20T12:20:24.157Z,12.10
2018-12-20T12:22:53.291Z,12.20
2018-12-20T12:25:21.989Z,12.20
2018-12-20T12:27:51.953Z,12.00
2018-12-20T12:30:20.673Z,11.90
2018-12-20T12:32:49.295Z,11.70
2018-12-20T12:35:19.766Z,11.40
2018-12-20T12:37:48.333Z,11.30
2018-12-20T12:40:16.973Z,11.10
2018-12-20T12:42:45.551Z,11.10
2018-12-20T12:45:21.500Z,11.20
2018-12-20T12:48:02.911Z,11.10
2018-12-20T12:50:26.381Z,11.00
2018-12-20T12:54:47.815Z,10.90
2018-12-20T12:57:16.382Z,10.80
2018-12-20T12:59:49.829Z,10.70
2018-12-20T13:02:19.347Z,10.60
2018-12-20T13:04:48.043Z,10.50
2018-12-20T13:07:21.377Z,10.50
2018-12-20T13:12:38.009Z,10.40
2018-12-20T13:15:08.009Z,10.30
2018-12-20T13:17:37.039Z,10.30
2018-12-20T13:20:06.904Z,10.30
2018-12-20T13:22:35.579Z,10.30
2018-12-20T13:25:04.649Z,10.20
2018-12-20T13:27:33.211Z,10.10
2018-12-20T13:30:01.735Z,10.10
2018-12-20T13:33:33.007Z,10.10
2018-12-20T13:36:11.450Z,10.10
2018-12-20T13:38:40.094Z,10.20
2018-12-20T13:41:19.417Z,10.20
2018-12-20T13:43:53.980Z,10.20
2018-12-20T13:46:33.748Z,10.30
2018-12-20T13:49:07.526Z,10.30
2018-12-20T13:51:36.931Z,10.40
2018-12-20T13:54:07.089Z,10.60
2018-12-20T13:56:36.309Z,10.60
2018-12-20T13:59:14.072Z,10.70
2018-12-20T14:01:50.589Z,10.50
2018-12-20T14:04:20.431Z,10.30
2018-12-20T14:06:50.650Z,10.30
2018-12-20T14:09:22.120Z,10.30
2018-12-20T14:12:15.790Z,10.20
2018-12-20T14:14:44.580Z,10.10
2018-12-20T14:17:13.253Z,10.00
2018-12-20T14:20:09.351Z,10.00
2018-12-20T14:23:03.348Z,10.00
2018-12-20T14:25:35.669Z,10.00
2018-12-20T14:28:12.833Z,10.00
2018-12-20T14:30:51.272Z,9.90
2018-12-20T15:39:14.549Z,8.60
2018-12-20T15:41:50.536Z,8.60
2018-12-20T15:56:31.949Z,8.30
2018-12-20T15:59:00.957Z,8.30
2018-12-20T16:04:27.261Z,8.30
2018-12-20T16:06:56.090Z,8.30
2018-12-20T16:09:24.909Z,8.30
2018-12-20T16:11:53.671Z,8.30
2018-12-20T16:14:22.297Z,8.30
2018-12-20T16:16:50.825Z,8.20
2018-12-20T16:19:19.644Z,8.20
2018-12-20T16:21:48.724Z,8.20
2018-12-20T16:24:17.318Z,8.10
2018-12-20T16:26:45.886Z,8.20
2018-12-20T16:29:14.398Z,8.30
2018-12-20T16:37:02.248Z,8.30
2018-12-20T16:39:30.661Z,8.20
2018-12-20T16:42:00.294Z,8.20
2018-12-20T16:44:29.096Z,8.30
2018-12-20T16:46:57.687Z,8.30
2018-12-20T16:49:26.450Z,8.30
2018-12-20T16:51:55.039Z,8.40
2018-12-20T16:54:23.647Z,8.50
2018-12-20T16:56:52.407Z,8.60
2018-12-20T16:59:21.013Z,8.60
2018-12-20T17:13:49.482Z,8.50
2018-12-20T17:16:19.129Z,8.50
2018-12-20T17:18:48.247Z,8.60
2018-12-20T17:21:17.062Z,8.60
2018-12-20T17:23:48.768Z,8.60
2018-12-20T17:26:18.238Z,8.60
2018-12-20T17:28:47.009Z,8.60
2018-12-20T17:31:15.613Z,8.70
2018-12-20T17:33:44.381Z,8.70
2018-12-20T17:36:12.869Z,8.60
2018-12-20T17:41:51.229Z,8.60
2018-12-20T17:44:19.858Z,8.60
2018-12-20T17:46:48.377Z,8.60
2018-12-20T17:49:17.179Z,8.70
2018-12-20T17:51:45.751Z,8.80
2018-12-20T17:54:16.191Z,8.90
2018-12-20T17:56:44.781Z,9.00
2018-12-20T17:59:13.614Z,9.00
2018-12-20T18:01:42.446Z,9.10
2018-12-20T18:24:39.655Z,9.30
2018-12-20T18:27:14.650Z,9.30
2018-12-20T18:29:47.360Z,9.30
2018-12-20T18:32:16.317Z,9.30
2018-12-20T18:34:45.174Z,9.30
2018-12-20T18:37:13.928Z,9.20
2018-12-20T18:39:42.661Z,9.20
2018-12-20T18:42:14.424Z,9.10
2018-12-20T18:44:43.390Z,9.10
2018-12-20T18:47:13.287Z,9.10
2018-12-20T18:49:47.551Z,9.10
2018-12-20T18:52:12.459Z,9.20
2018-12-20T18:54:41.058Z,9.20
2018-12-20T18:57:12.432Z,9.20
2018-12-20T18:59:41.119Z,9.30
2018-12-20T19:02:10.028Z,9.30
2018-12-20T19:04:38.883Z,9.20
2018-12-20T19:07:08.977Z,9.30
2018-12-20T19:09:37.559Z,9.20
2018-12-20T19:12:07.665Z,9.30
2018-12-20T19:14:36.166Z,9.20
2018-12-20T19:17:04.929Z,9.10
2018-12-20T19:19:56.013Z,9.10
2018-12-20T19:22:19.162Z,9.00
2018-12-20T19:24:47.798Z,8.90
2018-12-20T19:27:16.461Z,8.80
2018-12-20T19:29:45.071Z,8.80
2018-12-20T19:32:13.739Z,8.70
2018-12-20T19:34:42.642Z,8.60
2018-12-20T19:37:11.305Z,8.50
2018-12-20T19:39:39.851Z,8.50
2018-12-20T19:42:13.476Z,8.50
2018-12-20T19:44:44.481Z,8.60
2018-12-20T19:47:13.385Z,8.60
2018-12-20T19:50:05.284Z,8.50
2018-12-20T19:52:35.919Z,8.50
2018-12-20T19:56:52.871Z,8.60
2018-12-20T19:59:38.395Z,8.70
2018-12-20T20:02:04.769Z,8.60
2018-12-20T20:04:32.865Z,8.70
2018-12-20T20:07:29.440Z,8.70
2018-12-20T20:30:08.337Z,9.10
2018-12-20T20:35:33.312Z,9.20
2018-12-20T20:38:07.005Z,9.20
2018-12-20T20:40:35.792Z,9.30
2018-12-20T20:43:05.552Z,9.30
2018-12-20T21:28:56.189Z,9.10
2018-12-20T21:31:35.346Z,9.20
2018-12-20T22:19:05.759Z,9.20
2018-12-20T22:21:45.837Z,9.20
2018-12-20T22:24:19.814Z,9.20
2018-12-20T22:26:50.947Z,9.30
2018-12-20T22:29:29.043Z,9.30
2018-12-20T22:31:57.818Z,9.40
2018-12-20T22:34:29.637Z,9.40
2018-12-20T22:36:58.426Z,9.40
2018-12-20T22:39:27.117Z,9.40
2018-12-20T22:41:55.859Z,9.50
2018-12-20T22:44:24.517Z,9.40
2018-12-20T22:46:53.045Z,9.40
2018-12-20T22:49:21.674Z,9.40
2018-12-20T22:51:50.442Z,9.40
2018-12-20T22:54:19.167Z,9.40
2018-12-20T22:56:48.575Z,9.30
2018-12-20T22:59:17.285Z,9.40
2018-12-20T23:01:48.848Z,9.50
2018-12-20T23:04:17.600Z,9.50
2018-12-20T23:06:47.399Z,9.40
2018-12-20T23:09:17.417Z,9.50
2018-12-20T23:11:46.056Z,9.60
2018-12-20T23:14:14.749Z,9.70
2018-12-20T23:16:43.599Z,9.80
2018-12-20T23:19:12.232Z,9.50
2018-12-20T23:21:43.548Z,9.50
2018-12-20T23:24:14.058Z,9.70
2018-12-20T23:26:44.222Z,9.70
2018-12-20T23:29:12.905Z,9.70
2018-12-20T23:49:38.248Z,9.90
2018-12-20T23:52:07.572Z,10.00
2018-12-20T23:54:36.476Z,9.90
2018-12-20T23:57:06.062Z,9.90
